Strona główna
METAR-TAF:

METAR-TAF

Lotnisko :

Port lotniczy Sandnessjøen

Sandnessjøen, Norwegia

Szerokość geograficzna: 65-58N, Długość geograficzna: 012-28E, wysokość: 1 m

Aktualna obserwacja pogody

Raport powstał 16 minut temu, godzina 17:50 UTC
Wiatr 3 kt od zachodnio-południowy zachód, zmienny między południowo-południowy zachód i północny zachód
Temperatura 19°C
Wilgotność 64%
Ciśnienie 1011 hPa
Widzialność 10 km lub więcej
Brak chmur poniżej 1500 m i brak chmur cumulonimbus

METAR: ENST 161750Z 25003KT 200V310 CAVOK 19/12 Q1011 RMK WIND 300FT 27004KT

czas: 20:06 (18:06 UTC)


TAF: brakujący

Obserwacja i prognoza pogody dla ponad 4000 lotnisk (raport METAR i TAF).

Dostępne stacje oznaczono żółtymi i czerwonymi punktami na mapie.

Najedź kursorem aby zobaczyć nazwę stacji.

Kliknij aby zobaczyć obserwacje i prognozy pogody.

Aby zmienić mapę: kliknij na zielony przycisk z czarnym krzyżykiem, aby powiększyć; na zielony przycisk z myślnikiem, aby pomniejszyć; na zielone strzałki, aby przejść do map sąsiednich.


METAR-TAF: